createdAt,value
2022-12-14T00:01:37.313Z,0.95
2022-12-14T00:04:20.165Z,1.23
2022-12-14T00:07:03.151Z,1.08
2022-12-14T00:09:47.134Z,1.10
2022-12-14T00:12:31.401Z,0.93
2022-12-14T00:17:57.081Z,1.40
2022-12-14T00:20:39.925Z,1.45
2022-12-14T00:23:22.777Z,1.08
2022-12-14T00:26:10.113Z,1.35
2022-12-14T00:28:55.992Z,1.08
2022-12-14T00:31:38.922Z,1.20
2022-12-14T00:34:21.763Z,1.00
2022-12-14T00:37:04.898Z,0.90
2022-12-14T00:39:47.721Z,0.80
2022-12-14T00:42:30.570Z,0.70
2022-12-14T00:45:14.774Z,0.50
2022-12-14T00:50:40.920Z,0.47
2022-12-14T00:53:24.217Z,0.85
2022-12-14T00:56:09.049Z,0.77
2022-12-14T00:58:52.765Z,0.77
2022-12-14T01:01:37.535Z,0.88
2022-12-14T01:04:22.555Z,0.82
2022-12-14T01:07:05.516Z,0.60
2022-12-14T01:09:48.365Z,0.95
2022-12-14T01:12:31.219Z,0.80
2022-12-14T01:15:15.039Z,0.80
2022-12-14T01:17:59.261Z,1.30
2022-12-14T01:23:25.047Z,0.77
2022-12-14T01:26:08.291Z,0.93
2022-12-14T01:28:53.456Z,0.80
2022-12-14T01:31:38.085Z,0.98
2022-12-14T01:34:22.364Z,1.17
2022-12-14T01:39:48.885Z,1.52
2022-12-14T01:42:31.739Z,1.20
2022-12-14T01:45:23.036Z,1.00
2022-12-14T01:48:06.879Z,0.85
2022-12-14T01:50:51.892Z,1.10
2022-12-14T01:53:34.773Z,1.15
2022-12-14T01:56:18.605Z,1.10
2022-12-14T01:59:05.931Z,1.08
2022-12-14T02:01:49.650Z,1.20
2022-12-14T02:04:34.003Z,1.20
2022-12-14T02:07:19.046Z,1.20
2022-12-14T02:10:04.745Z,0.90
2022-12-14T02:12:51.587Z,0.80
2022-12-14T02:15:35.680Z,1.00
2022-12-14T02:18:22.934Z,1.60
2022-12-14T02:21:23.728Z,1.05
2022-12-14T02:24:39.237Z,0.90
2022-12-14T02:27:46.544Z,0.70
2022-12-14T02:30:35.217Z,0.70
2022-12-14T02:33:34.055Z,1.15
2022-12-14T02:36:25.921Z,1.00
2022-12-14T02:39:17.193Z,1.17
2022-12-14T02:42:07.571Z,1.10
2022-12-14T02:44:58.022Z,1.33
2022-12-14T02:47:54.424Z,1.30
2022-12-14T02:50:44.334Z,1.20
2022-12-14T02:53:33.068Z,1.65
2022-12-14T02:56:20.349Z,1.77
2022-12-14T02:59:08.011Z,1.23
2022-12-14T03:01:53.802Z,1.25
2022-12-14T03:04:45.752Z,1.50
2022-12-14T03:07:37.562Z,1.63
2022-12-14T03:10:28.530Z,1.30
2022-12-14T03:13:20.692Z,1.10
2022-12-14T03:16:10.733Z,1.10
2022-12-14T03:19:00.957Z,0.88
2022-12-14T03:21:50.852Z,1.30
2022-12-14T03:24:40.324Z,1.60
2022-12-14T03:27:26.930Z,1.20
2022-12-14T03:30:13.944Z,0.95
2022-12-14T03:33:04.573Z,0.95
2022-12-14T03:35:55.485Z,0.90
2022-12-14T03:38:43.893Z,1.50
2022-12-14T03:41:32.566Z,1.30
2022-12-14T03:44:25.160Z,1.20
2022-12-14T03:47:18.993Z,1.00
2022-12-14T03:50:05.439Z,0.70
2022-12-14T03:52:56.857Z,0.82
2022-12-14T03:55:49.217Z,1.05
2022-12-14T03:58:39.086Z,1.00
2022-12-14T04:01:30.264Z,1.00
2022-12-14T04:04:17.129Z,0.90
2022-12-14T04:07:08.377Z,0.77
2022-12-14T04:09:55.565Z,0.77
2022-12-14T04:12:59.605Z,1.85
2022-12-14T04:16:11.340Z,2.03
2022-12-14T04:19:00.418Z,1.30
2022-12-14T04:21:49.107Z,1.10
2022-12-14T04:24:56.418Z,1.20
2022-12-14T04:27:44.358Z,1.13
2022-12-14T04:30:29.562Z,1.50
2022-12-14T04:33:40.249Z,1.60
2022-12-14T04:36:28.877Z,1.42
2022-12-14T04:39:16.534Z,1.13
2022-12-14T04:42:03.873Z,1.52
2022-12-14T04:44:53.253Z,1.95
2022-12-14T04:47:43.208Z,1.60
2022-12-14T04:50:29.659Z,1.40
2022-12-14T04:53:17.365Z,1.55
2022-12-14T04:56:07.364Z,1.40
2022-12-14T04:58:50.422Z,1.60
2022-12-14T05:01:49.171Z,1.27
2022-12-14T05:04:54.921Z,1.30
2022-12-14T05:07:48.996Z,1.58
2022-12-14T05:10:40.072Z,1.40
2022-12-14T05:13:27.018Z,1.27
2022-12-14T05:16:11.280Z,1.40
2022-12-14T05:18:55.515Z,1.40
2022-12-14T05:24:33.301Z,1.20
2022-12-14T05:27:16.222Z,1.20
2022-12-14T05:29:59.279Z,0.90
2022-12-14T05:32:42.153Z,0.90
2022-12-14T05:35:26.405Z,0.82
2022-12-14T05:40:53.336Z,1.00
2022-12-14T05:43:36.326Z,1.00
2022-12-14T05:46:19.490Z,1.05
2022-12-14T05:49:02.370Z,0.90
2022-12-14T05:51:46.630Z,0.57
2022-12-14T05:57:12.971Z,0.80
2022-12-14T05:59:55.816Z,0.80
2022-12-14T06:02:38.735Z,0.50
2022-12-14T06:05:21.624Z,1.05
2022-12-14T06:08:06.226Z,1.02
2022-12-14T06:10:49.110Z,0.88
2022-12-14T06:13:31.980Z,1.00
2022-12-14T06:16:17.370Z,0.75
2022-12-14T06:19:02.254Z,1.50
2022-12-14T06:21:45.384Z,1.77
2022-12-14T06:24:29.628Z,2.05
2022-12-14T06:29:55.245Z,1.90
2022-12-14T06:32:38.093Z,2.30
2022-12-14T06:35:20.921Z,1.70
2022-12-14T06:38:03.790Z,1.70
2022-12-14T06:40:48.028Z,1.90
2022-12-14T06:46:16.156Z,1.92
2022-12-14T06:48:59.133Z,2.72
2022-12-14T06:51:42.818Z,2.20
2022-12-14T06:54:25.709Z,3.42
2022-12-14T06:57:10.187Z,3.28
2022-12-14T06:59:53.058Z,4.40
2022-12-14T07:02:36.185Z,2.75
2022-12-14T07:05:19.303Z,2.80
2022-12-14T07:08:02.262Z,2.35
2022-12-14T07:10:45.118Z,2.72
2022-12-14T07:13:29.733Z,3.20
2022-12-14T07:16:17.339Z,2.60
2022-12-14T07:19:00.580Z,2.95
2022-12-14T07:21:43.491Z,3.17
2022-12-14T07:24:26.364Z,3.50
2022-12-14T07:27:09.202Z,3.30
2022-12-14T07:29:53.561Z,3.10
2022-12-14T07:32:36.446Z,2.22
2022-12-14T07:35:19.364Z,2.97
2022-12-14T07:38:02.238Z,2.95
2022-12-14T07:40:45.318Z,2.88
2022-12-14T07:43:28.405Z,2.42
2022-12-14T07:46:15.095Z,2.08
2022-12-14T07:48:59.573Z,2.63
2022-12-14T07:51:44.307Z,2.17
2022-12-14T07:54:27.262Z,1.75
2022-12-14T07:57:10.147Z,1.98
2022-12-14T07:59:57.456Z,1.77
2022-12-14T08:02:42.285Z,1.48
2022-12-14T08:05:25.198Z,1.80
2022-12-14T08:08:08.051Z,2.88
2022-12-14T08:10:50.875Z,2.13
2022-12-14T08:13:34.244Z,2.10
2022-12-14T08:16:17.821Z,2.47
2022-12-14T08:19:02.589Z,1.58
2022-12-14T08:21:46.319Z,1.73
2022-12-14T08:24:29.185Z,1.77
2022-12-14T08:27:12.126Z,1.75
2022-12-14T08:29:54.985Z,3.03
2022-12-14T08:32:37.866Z,3.30
2022-12-14T08:35:22.078Z,2.55
2022-12-14T08:38:04.951Z,2.30
2022-12-14T08:40:47.795Z,1.90
2022-12-14T08:43:31.057Z,2.20
2022-12-14T08:46:14.583Z,1.95
2022-12-14T08:48:58.735Z,1.77
2022-12-14T08:51:42.984Z,2.45
2022-12-14T08:57:08.541Z,2.70
2022-12-14T09:00:01.376Z,2.58
2022-12-14T09:02:46.339Z,2.85
2022-12-14T09:05:32.665Z,2.60
2022-12-14T09:08:16.920Z,2.80
2022-12-14T09:10:59.846Z,2.50
2022-12-14T09:13:43.895Z,3.50
2022-12-14T09:16:27.291Z,3.47
2022-12-14T09:19:10.404Z,3.77
2022-12-14T09:21:53.629Z,3.28
2022-12-14T09:24:38.103Z,3.35
2022-12-14T09:30:06.191Z,3.22
2022-12-14T09:32:50.701Z,3.00
2022-12-14T09:35:33.762Z,3.80
2022-12-14T09:38:16.655Z,3.45
2022-12-14T09:41:07.019Z,3.85
2022-12-14T09:43:56.929Z,4.13
2022-12-14T09:46:50.881Z,3.10
2022-12-14T09:49:35.658Z,2.80
2022-12-14T09:52:21.505Z,3.85
2022-12-14T09:55:16.111Z,3.83
2022-12-14T10:03:49.975Z,3.55
2022-12-14T10:06:38.097Z,3.38
2022-12-14T10:09:29.298Z,3.85
2022-12-14T10:12:22.690Z,3.33
2022-12-14T10:15:21.767Z,3.30
2022-12-14T10:18:56.895Z,3.30
2022-12-14T10:21:29.256Z,2.88
2022-12-14T10:24:18.629Z,4.03
2022-12-14T10:27:02.487Z,3.63
2022-12-14T10:29:50.000Z,3.65
2022-12-14T10:32:37.400Z,4.07
2022-12-14T10:35:24.984Z,3.42
2022-12-14T10:38:17.202Z,3.20
2022-12-14T10:41:04.093Z,4.22
2022-12-14T10:43:54.288Z,4.68
2022-12-14T10:46:46.152Z,3.13
2022-12-14T10:49:37.622Z,3.70
2022-12-14T10:52:24.306Z,4.10
2022-12-14T10:55:15.903Z,3.30
2022-12-14T10:57:58.764Z,3.50
2022-12-14T11:00:42.046Z,3.70
2022-12-14T11:03:25.084Z,3.22
2022-12-14T11:06:16.572Z,3.38
2022-12-14T11:08:59.405Z,3.65
2022-12-14T11:11:43.066Z,3.08
2022-12-14T11:14:26.265Z,3.03
2022-12-14T11:17:31.416Z,2.67
2022-12-14T11:20:22.165Z,3.40
2022-12-14T11:23:20.743Z,3.15
2022-12-14T11:26:06.037Z,3.88
2022-12-14T11:28:50.765Z,3.33
2022-12-14T11:31:37.595Z,3.83
2022-12-14T11:34:27.228Z,3.40
2022-12-14T11:37:14.096Z,3.33
2022-12-14T11:40:01.192Z,3.40
2022-12-14T11:42:49.037Z,3.10
2022-12-14T11:45:34.201Z,3.10
2022-12-14T11:48:22.059Z,3.10
2022-12-14T11:51:13.119Z,3.03
2022-12-14T11:54:03.871Z,3.08
2022-12-14T11:56:51.142Z,3.20
2022-12-14T11:59:40.497Z,3.65
2022-12-14T12:02:28.521Z,3.00
2022-12-14T12:05:14.177Z,2.92
2022-12-14T12:07:59.403Z,3.10
2022-12-14T12:10:45.099Z,3.20
2022-12-14T12:13:39.033Z,2.75
2022-12-14T12:16:24.224Z,2.40
2022-12-14T12:19:12.434Z,2.20
2022-12-14T12:21:57.072Z,2.00
2022-12-14T12:27:51.577Z,2.28
2022-12-14T12:30:40.614Z,2.25
2022-12-14T12:33:32.942Z,3.90
2022-12-14T12:36:23.567Z,3.20
2022-12-14T12:39:12.461Z,3.30
2022-12-14T12:42:05.621Z,2.20
2022-12-14T12:44:56.455Z,2.75
2022-12-14T12:47:47.709Z,2.53
2022-12-14T12:50:35.313Z,2.92
2022-12-14T12:53:22.374Z,2.40
2022-12-14T12:56:09.617Z,2.58
2022-12-14T12:58:53.678Z,3.17
2022-12-14T13:01:41.824Z,2.90
2022-12-14T13:04:32.512Z,3.08
2022-12-14T13:07:24.108Z,2.40
2022-12-14T13:10:18.197Z,2.30
2022-12-14T13:13:07.016Z,2.30
2022-12-14T13:15:53.678Z,2.15
2022-12-14T13:18:59.669Z,3.05
2022-12-14T13:21:50.838Z,4.25
2022-12-14T13:24:33.746Z,5.00
2022-12-14T13:27:35.519Z,5.18
2022-12-14T13:30:44.069Z,4.32
2022-12-14T13:34:04.163Z,4.15
2022-12-14T13:37:16.070Z,7.30
2022-12-14T13:40:39.264Z,3.80
2022-12-14T13:43:51.222Z,4.13
2022-12-14T13:46:34.539Z,4.97
2022-12-14T13:49:22.501Z,4.00
2022-12-14T13:52:07.436Z,4.70
2022-12-14T13:54:50.402Z,3.92
2022-12-14T13:57:33.333Z,3.67
2022-12-14T14:00:49.370Z,4.93
2022-12-14T14:03:53.296Z,4.65
2022-12-14T14:06:38.702Z,3.85
2022-12-14T14:09:58.465Z,3.42
2022-12-14T14:12:44.965Z,4.03
2022-12-14T14:16:11.229Z,3.28
2022-12-14T14:18:57.992Z,4.07
2022-12-14T14:22:06.050Z,3.83
2022-12-14T14:27:50.970Z,4.30
2022-12-14T14:30:36.887Z,3.20
2022-12-14T14:33:45.468Z,2.95
2022-12-14T14:36:33.037Z,3.30
2022-12-14T14:39:56.157Z,2.75
2022-12-14T14:42:49.009Z,2.10
2022-12-14T14:45:44.103Z,8.00
2022-12-14T14:48:34.913Z,4.97
2022-12-14T14:51:21.927Z,6.60
2022-12-14T14:55:06.923Z,7.28
2022-12-14T14:57:36.161Z,9.10
2022-12-14T15:00:20.588Z,7.05
2022-12-14T15:05:46.659Z,3.80
2022-12-14T15:08:35.637Z,6.85
2022-12-14T15:11:20.822Z,10.23
2022-12-14T15:14:14.975Z,13.05
2022-12-14T15:16:59.386Z,7.80
2022-12-14T15:22:33.184Z,3.80
2022-12-14T15:25:23.472Z,3.38
2022-12-14T15:28:08.576Z,6.18
2022-12-14T15:30:51.561Z,6.45
2022-12-14T15:33:37.880Z,4.25
2022-12-14T15:36:30.164Z,5.50
2022-12-14T15:39:33.649Z,3.88
2022-12-14T15:42:18.340Z,4.40
2022-12-14T15:45:08.441Z,3.30
2022-12-14T15:47:51.599Z,3.55
2022-12-14T15:50:39.368Z,3.00
2022-12-14T15:53:31.342Z,3.55
2022-12-14T15:56:22.179Z,2.60
2022-12-14T15:59:14.826Z,2.42
2022-12-14T16:02:07.397Z,3.53
2022-12-14T16:04:51.609Z,2.83
2022-12-14T16:07:39.108Z,3.13
2022-12-14T16:10:25.580Z,3.13
2022-12-14T16:13:16.352Z,4.32
2022-12-14T16:16:04.444Z,4.13
2022-12-14T16:18:50.698Z,4.40
2022-12-14T16:21:36.252Z,4.82
2022-12-14T16:24:25.827Z,4.18
2022-12-14T16:27:19.316Z,4.32
2022-12-14T16:30:17.957Z,4.22
2022-12-14T16:33:16.909Z,3.42
2022-12-14T16:36:03.288Z,2.50
2022-12-14T16:38:57.535Z,5.30
2022-12-14T16:41:44.195Z,3.40
2022-12-14T16:44:37.366Z,3.85
2022-12-14T16:47:28.659Z,3.10
2022-12-14T16:50:40.082Z,2.88
2022-12-14T16:53:27.879Z,6.47
2022-12-14T16:56:17.378Z,5.40
2022-12-14T16:59:05.030Z,6.85
2022-12-14T17:01:49.664Z,23.42
2022-12-14T17:04:36.760Z,12.95
2022-12-14T17:07:23.267Z,6.85
2022-12-14T17:10:14.710Z,5.55
2022-12-14T17:13:00.236Z,4.43
2022-12-14T17:15:57.411Z,5.10
2022-12-14T17:18:42.459Z,5.93
2022-12-14T17:21:29.042Z,6.07
2022-12-14T17:24:15.717Z,5.47
2022-12-14T17:26:58.818Z,7.97
2022-12-14T17:29:41.730Z,8.95
2022-12-14T17:32:28.867Z,8.07
2022-12-14T17:35:16.834Z,6.00
2022-12-14T17:38:00.087Z,4.97
2022-12-14T17:40:43.926Z,6.63
2022-12-14T17:43:28.601Z,8.18
2022-12-14T17:46:11.786Z,9.75
2022-12-14T17:48:56.996Z,7.72
2022-12-14T17:51:43.556Z,6.40
2022-12-14T17:54:29.198Z,7.03
2022-12-14T17:57:17.068Z,5.68
2022-12-14T18:00:13.891Z,6.53
2022-12-14T18:02:56.983Z,5.22
2022-12-14T18:05:48.160Z,5.32
2022-12-14T18:08:31.807Z,5.05
2022-12-14T18:11:17.974Z,6.50
2022-12-14T18:14:00.902Z,5.65
2022-12-14T18:16:43.777Z,7.38
2022-12-14T18:19:27.159Z,7.45
2022-12-14T18:22:12.300Z,13.07
2022-12-14T18:24:55.157Z,15.77
2022-12-14T18:27:38.009Z,17.90
2022-12-14T18:30:20.947Z,21.95
2022-12-14T18:33:03.914Z,12.20
2022-12-14T18:35:48.213Z,9.48
2022-12-14T18:38:32.515Z,7.88
2022-12-14T18:44:00.527Z,5.88
2022-12-14T18:46:43.442Z,6.07
2022-12-14T18:49:32.141Z,6.55
2022-12-14T18:52:15.065Z,7.43
2022-12-14T18:54:59.442Z,6.93
2022-12-14T19:00:27.798Z,7.20
2022-12-14T19:03:10.806Z,6.78
2022-12-14T19:06:26.799Z,7.82
2022-12-14T19:09:05.676Z,7.22
2022-12-14T19:11:49.921Z,6.57
2022-12-14T19:14:32.784Z,6.55
2022-12-14T19:17:15.941Z,6.93
2022-12-14T19:19:58.826Z,6.03
2022-12-14T19:22:42.294Z,8.15
2022-12-14T19:25:25.625Z,9.93
2022-12-14T19:31:13.835Z,7.83
2022-12-14T19:33:57.209Z,7.13
2022-12-14T19:36:40.241Z,6.30
2022-12-14T19:39:23.162Z,5.75
2022-12-14T19:42:06.082Z,5.25
2022-12-14T19:44:50.347Z,6.80
2022-12-14T19:47:33.228Z,8.85
2022-12-14T19:50:16.465Z,8.80
2022-12-14T19:52:59.417Z,11.57
2022-12-14T19:55:42.371Z,10.13
2022-12-14T19:58:25.885Z,10.38
2022-12-14T20:01:11.355Z,10.27
2022-12-14T20:03:54.410Z,11.02
2022-12-14T20:06:37.479Z,11.82
2022-12-14T20:09:20.388Z,12.63
2022-12-14T20:12:03.984Z,10.63
2022-12-14T20:14:49.268Z,8.70
2022-12-14T20:17:33.763Z,8.57
2022-12-14T20:20:16.889Z,8.70
2022-12-14T20:22:59.827Z,8.60
2022-12-14T20:25:42.702Z,7.82
2022-12-14T20:28:25.649Z,8.90
2022-12-14T20:31:10.283Z,8.50
2022-12-14T20:33:54.985Z,9.73
2022-12-14T20:36:38.071Z,8.82
2022-12-14T20:39:21.346Z,8.52
2022-12-14T20:42:04.366Z,8.48
2022-12-14T20:44:49.255Z,8.43
2022-12-14T20:47:32.467Z,8.68
2022-12-14T20:50:16.859Z,9.32
2022-12-14T20:55:42.392Z,5.90
2022-12-14T20:58:25.272Z,6.53
2022-12-14T21:01:09.109Z,7.47
2022-12-14T21:03:52.507Z,8.27
2022-12-14T21:06:40.331Z,10.05
2022-12-14T21:09:23.261Z,6.95
2022-12-14T21:12:24.282Z,6.72
2022-12-14T21:15:07.992Z,6.65
2022-12-14T21:17:50.845Z,7.03
2022-12-14T21:20:33.803Z,6.38
2022-12-14T21:23:18.038Z,6.85
2022-12-14T21:26:02.826Z,7.15
2022-12-14T21:28:45.760Z,7.50
2022-12-14T21:31:28.677Z,7.53
2022-12-14T21:34:14.828Z,6.97
2022-12-14T21:36:57.728Z,6.78
2022-12-14T21:39:41.997Z,9.35
2022-12-14T21:42:25.018Z,14.45
2022-12-14T21:45:09.344Z,15.02
2022-12-14T21:50:34.974Z,11.32
2022-12-14T21:53:17.814Z,11.32
2022-12-14T21:56:23.016Z,12.07
2022-12-14T21:59:04.924Z,10.23
2022-12-14T22:01:47.965Z,11.88
2022-12-14T22:04:37.857Z,10.52
2022-12-14T22:07:24.261Z,9.52
2022-12-14T22:10:08.046Z,12.05
2022-12-14T22:12:52.266Z,11.10
2022-12-14T22:15:35.154Z,10.70
2022-12-14T22:18:18.018Z,10.45
2022-12-14T22:21:04.199Z,8.48
2022-12-14T22:23:47.193Z,9.15
2022-12-14T22:26:30.059Z,10.32
2022-12-14T22:29:15.926Z,8.57
2022-12-14T22:31:58.824Z,9.05
2022-12-14T22:34:42.157Z,8.48
2022-12-14T22:37:25.026Z,8.88
2022-12-14T22:40:09.306Z,13.15
2022-12-14T22:42:52.171Z,10.13
2022-12-14T22:45:36.914Z,9.35
2022-12-14T22:48:19.879Z,8.90
2022-12-14T22:51:05.204Z,10.30
2022-12-14T22:53:49.755Z,8.70
2022-12-14T22:56:38.385Z,8.07
2022-12-14T22:59:25.149Z,9.02
2022-12-14T23:02:09.880Z,8.65
2022-12-14T23:04:54.023Z,9.27
2022-12-14T23:07:36.922Z,8.57
2022-12-14T23:10:37.492Z,8.93
2022-12-14T23:13:37.673Z,8.88
2022-12-14T23:16:37.973Z,8.80
2022-12-14T23:19:39.508Z,9.05
2022-12-14T23:22:39.961Z,7.60
2022-12-14T23:25:40.776Z,10.30
2022-12-14T23:28:41.031Z,8.60
2022-12-14T23:31:41.503Z,11.02
2022-12-14T23:34:43.258Z,15.40
2022-12-14T23:37:43.897Z,17.25
2022-12-14T23:40:43.945Z,18.48
2022-12-14T23:43:44.412Z,20.20
2022-12-14T23:46:44.637Z,28.40
2022-12-14T23:49:46.291Z,33.15
2022-12-14T23:52:46.770Z,43.05
2022-12-14T23:55:47.373Z,35.13
2022-12-14T23:58:47.905Z,28.42
